Tiempo atmosférico en la estación meteorológica de Cañaveral, Cáceres (373 m.)

Fecha
DESCASC
Temp. máxima en grados centígrados (hora)
DESCASC
Temp. mínima en grados centígrados (hora)
DESCASC
Temp. media en grados centígrados
DESCASC
Racha de viento máxima en m/sg (hora)
DESCASC
Velocidad máxima media en intervalos de 10 minutos(hora)
DESCASC
Precipitaciones diarias en mm
DESCASC
Precipitaciones de 00:00 a 06:00 en mm
DESCASC
Precipitaciones de 06:00 a 12:00 en mm
DESCASC
Precipitaciones de 12:00 a 18:00 en mm
DESCASC
Precipitaciones de 18:00 a 24:00 en mm
DESCASC
21-08-2017 -- (--) -- (--) -- -- (--) -- (--) -- 0 0 0 --
20-08-2017 39.7 (18:40) 26.6 (08:10) 33.2 13.06 (11:10) 8.89 (11:00) 0 0 0 0 0
19-08-2017 37.3 (17:40) 24.1 (08:00) 30.7 13.06 (03:30) 10.56 (06:40) 0 0 0 0 0
18-08-2017 39.1 (17:50) 26.4 (08:20) 32.7 13.89 (06:50) 10.56 (06:10) 0 0 0 0 0
17-08-2017 38.6 (17:50) 24.6 (00:00) 31.6 11.67 (02:50) 8.33 (03:20) 0 0 0 0 0
16-08-2017 35.6 (17:50) 19.7 (00:00) 27.6 11.94 (15:20) 8.33 (10:50) 0 0 0 0 0
15-08-2017 36.7 (16:40) 19.1 (00:00) 27.9 10.83 (17:30) 7.22 (22:00) 0 0 0 0 0
14-08-2017 37.5 (17:20) 23 (07:30) 30.3 11.67 (23:00) 7.5 (23:10) 0 0 0 0 0
13-08-2017 38.1 (17:50) 21.5 (00:00) 29.8 11.94 (10:10) 8.06 (10:00) 0 0 0 0 0
12-08-2017 35.4 (17:10) 22 (00:00) 28.7 13.33 (09:20) 8.33 (09:20) 0 0 0 0 0
11-08-2017 33.4 (18:30) 19.6 (00:00) 26.5 13.33 (09:20) 8.89 (09:20) 0 0 0 0 0
10-08-2017 30.1 (19:20) 16.1 (00:00) 23.1 15.83 (00:20) 10.56 (00:50) 0 0 0 0 0
09-08-2017 28.9 (17:00) 17.4 (00:00) 23.1 17.78 (22:50) 12.22 (22:50) 0 0 0 0 0
08-08-2017 31 (18:20) 17.1 (00:00) 24.1 13.33 (06:00) 9.72 (06:00) 0 0 0 0 0
07-08-2017 36.2 (17:30) 18.1 (00:00) 27.2 13.06 (21:30) 8.61 (21:30) 0 0 0 0 0
06-08-2017 36.7 (18:00) 21 (00:00) 28.9 14.72 (03:50) 10.83 (03:50) 0 0 0 0 0
05-08-2017 39.4 (17:00) 24.7 (00:00) 32.1 13.06 (05:00) 9.72 (04:20) 0 0 0 0 0
04-08-2017 40.5 (19:10) 24.9 (00:00) 32.7 11.67 (10:50) 9.17 (00:10) 0 0 0 0 0
03-08-2017 38 (17:20) 21.3 (00:00) 29.6 12.22 (00:20) 8.89 (23:59) 0 0 0 0 0
02-08-2017 36 (17:40) 16.4 (00:00) 26.2 11.94 (23:50) 8.33 (00:40) 0 0 0 0 0
01-08-2017 32.6 (18:20) 16 (00:00) 24.3 10 (16:00) 6.67 (23:40) 0 0 0 0 0
31-07-2017 32.4 (17:20) 15.1 (00:00) 23.8 14.44 (19:30) 10.28 (19:50) 0 0 0 0 0
30-07-2017 36.8 (17:50) 20.6 (00:00) 28.7 11.67 (16:40) 6.94 (00:10) 0 0 0 0 0
29-07-2017 37.8 (17:10) 21.5 (00:00) 29.6 12.5 (23:59) 8.06 (23:40) 0 0 0 0 0
28-07-2017 38.4 (17:20) 24 (00:00) 31.2 12.5 (09:10) 9.17 (07:50) 0 0 0 0 0
27-07-2017 38.9 (17:50) 26.1 (00:00) 32.5 11.67 (03:50) 8.33 (23:40) 0 0 0 0 0
26-07-2017 36.5 (19:10) 24.1 (00:00) 30.3 10.56 (01:10) 7.5 (01:10) 0 0 0 0 0
25-07-2017 34.8 (19:00) 22.6 (00:00) 28.7 13.61 (02:50) 9.44 (01:20) 0 0 0 0 0
24-07-2017 34.9 (18:00) 20.9 (00:00) 27.9 15.56 (12:40) 12.22 (04:40) 0 0 0 0 0
23-07-2017 35.7 (17:50) 21.5 (00:00) 28.6 13.06 (05:30) 10.28 (06:10) 0 0 0 0 0

Gráficas

Temp. máximas Temp. mínimas Temp. medias Precipitaciones Rachas de viento máximas Velocidades máximas media en intervalos de 10 minutos

Datos horarios

Fecha y hora oficial Temperatura (ºC) Velocidad del viento (km/h) Dirección del viento Racha (km/h) Dirección de racha Precipitación (mm) Presión (hPa) Tendencia (hPa) Humedad (%)
2017-08-21 23:00:00 31.9 4 Oeste 8 Noroeste 0 -- -- 35
2017-08-21 22:00:00 32.7 4 Oeste 12 Sudoeste 0 -- -- 33
2017-08-21 21:00:00 34.7 9 Sudoeste 23 Oeste 0 -- -- 31
2017-08-21 20:00:00 37.1 11 Oeste 25 Sudoeste 0 -- -- 27
2017-08-21 19:00:00 37.7 12 Oeste 26 Sudoeste 0 -- -- 27
2017-08-21 18:00:00 37.2 10 Sur 28 Sudoeste 0 -- -- 28
2017-08-21 17:00:00 36.9 15 Sur 27 Sudoeste 0 -- -- 28
2017-08-21 16:00:00 36.2 13 Sudoeste 26 Sur 0 -- -- 30
2017-08-21 15:00:00 35.4 10 Sur 28 Sur 0 -- -- 30
2017-08-21 14:00:00 34.4 10 Sudeste 26 Sur 0 -- -- 30
2017-08-21 13:00:00 33.4 14 Sur 24 Sur 0 -- -- 30
2017-08-21 12:00:00 31.8 12 Sudeste 26 Sudeste 0 -- -- 35
2017-08-21 11:00:00 30 13 Sudeste 26 Sudeste 0 -- -- 38
2017-08-21 10:00:00 27.9 21 Sudeste 30 Sudeste 0 -- -- 39
2017-08-21 09:00:00 26.8 13 Este 25 Este 0 -- -- 37
2017-08-21 08:00:00 26.5 13 Este 43 Este 0 -- -- 36
2017-08-21 07:00:00 27.8 29 Este 50 Este 0 -- -- 32
2017-08-21 06:00:00 29 30 Este 44 Este 0 -- -- 23
2017-08-21 05:00:00 30.1 23 Este 40 Este 0 -- -- 21
2017-08-21 04:00:00 31.4 21 Nordeste 32 Este 0 -- -- 27
2017-08-21 03:00:00 30.6 13 Nordeste 23 Norte 0 -- -- 26
2017-08-21 02:00:00 32.2 13 Nordeste 29 Norte 0 -- -- 22
2017-08-21 01:00:00 32.3 22 Norte 30 Norte 0 -- -- 23
2017-08-21 00:00:00 32.9 14 Norte 22 Norte 0 -- -- 26
2017-08-20 23:00:00 33.8 8 Nordeste 15 Norte 0 -- -- 25
2017-08-20 22:00:00 34.1 13 Norte 18 Norte 0 -- -- 23
2017-08-20 21:00:00 35.5 15 Norte 24 Norte 0 -- -- 24
2017-08-20 20:00:00 37.7 17 Norte 26 Norte 0 -- -- 22
2017-08-20 19:00:00 39.1 16 Norte 22 Nordeste 0 -- -- 21
2017-08-20 18:00:00 38.9 9 Este 18 Este 0 -- -- 22
2017-08-20 17:00:00 39.1 6 Este 20 Sudeste 0 -- -- 22
2017-08-20 16:00:00 38.9 8 Sudeste 24 Sudeste 0 -- -- 22
2017-08-20 15:00:00 37.1 12 Sudeste 31 Este 0 -- -- 25
2017-08-20 14:00:00 35.5 19 Este 35 Nordeste 0 -- -- 29
2017-08-20 13:00:00 33.8 23 Este 36 Este 0 -- -- 32
2017-08-20 12:00:00 31.8 23 Este 47 Este 0 -- -- 37
2017-08-20 11:00:00 29.8 32 Este 46 Este 0 -- -- 42
2017-08-20 10:00:00 28.5 26 Nordeste 43 Este 0 -- -- 46
2017-08-20 09:00:00 27.3 22 Nordeste 33 Nordeste 0 -- -- 49
2017-08-20 08:00:00 26.7 17 Nordeste 27 Nordeste 0 -- -- 45
2017-08-20 07:00:00 27.4 18 Nordeste 33 Nordeste 0 -- -- 36
2017-08-20 06:00:00 28.5 21 Nordeste 34 Nordeste 0 -- -- 33
2017-08-20 05:00:00 28.9 17 Nordeste 31 Norte 0 -- -- 32
2017-08-20 04:00:00 29.5 19 Norte 33 Norte 0 -- -- 31
2017-08-20 03:00:00 28.9 23 Norte 37 Norte 0 -- -- 31
2017-08-20 02:00:00 29.3 28 Norte 41 Norte 0 -- -- 31
2017-08-20 01:00:00 29.6 28 Norte 40 Norte 0 -- -- 31
2017-08-20 00:00:00 30.8 24 Norte 34 Norte 0 -- -- 30
2017-08-19 23:00:00 31.6 18 Norte 27 Norte 0 -- -- 29
2017-08-19 22:00:00 32.9 18 Noroeste 23 Noroeste 0 -- -- 25
2017-08-19 21:00:00 34.1 10 Noroeste 17 Norte 0 -- -- 24
2017-08-19 20:00:00 36.5 13 Norte 23 Norte 0 -- -- 20
2017-08-19 19:00:00 37.1 13 Norte 25 Norte 0 -- -- 21
2017-08-19 18:00:00 37.1 13 Noroeste 27 Noroeste 0 -- -- 19
2017-08-19 17:00:00 36.7 11 Norte 27 Noroeste 0 -- -- 21
2017-08-19 16:00:00 36.2 10 Norte 26 Norte 0 -- -- 23
2017-08-19 15:00:00 35 19 Norte 31 Norte 0 -- -- 26
2017-08-19 14:00:00 33.9 21 Norte 32 Norte 0 -- -- 28
2017-08-19 13:00:00 33.3 19 Norte 32 Nordeste 0 -- -- 30
2017-08-19 12:00:00 30.4 19 Norte 31 Norte 0 -- -- 37
2017-08-19 11:00:00 29.1 21 Norte 33 Norte 0 -- -- 37
2017-08-19 10:00:00 26.9 23 Norte 35 Nordeste 0 -- -- 40
2017-08-19 09:00:00 25 21 Norte 39 Nordeste 0 -- -- 45
2017-08-19 08:00:00 24.1 28 Norte 45 Norte 0 -- -- 46
2017-08-19 07:00:00 24.7 36 Norte 47 Norte 0 -- -- 44
2017-08-19 06:00:00 25.9 32 Norte 45 Norte 0 -- -- 38
2017-08-19 05:00:00 27.1 31 Norte 42 Norte 0 -- -- 36
2017-08-19 04:00:00 27.5 31 Norte 47 Norte 0 -- -- 35
2017-08-19 03:00:00 27.1 25 Norte 39 Norte 0 -- -- 36
2017-08-19 02:00:00 27.9 25 Norte 37 Norte 0 -- -- 35
2017-08-19 01:00:00 29.3 27 Norte 37 Norte 0 -- -- 32
2017-08-19 00:00:00 30.1 24 Norte 33 Norte 0 -- -- 31
2017-08-18 23:00:00 30.7 18 Norte 27 Norte 0 -- -- 28
2017-08-18 22:00:00 31.8 19 Norte 25 Norte 0 -- -- 24
2017-08-18 21:00:00 34.1 15 Norte 23 Norte 0 -- -- 20
2017-08-18 20:00:00 36.7 17 Noroeste 29 Norte 0 -- -- 16
2017-08-18 19:00:00 37.6 14 Norte 31 Oeste 0 -- -- 15
2017-08-18 18:00:00 38.8 21 Oeste 35 Oeste 0 -- -- 15
2017-08-18 17:00:00 38.4 9 Sudoeste 30 Noroeste 0 -- -- 18
2017-08-18 16:00:00 37.2 13 Oeste 33 Noroeste 0 -- -- 20
2017-08-18 15:00:00 36.2 17 Norte 35 Noroeste 0 -- -- 21
2017-08-18 14:00:00 35.1 22 Noroeste 35 Noroeste 0 -- -- 20
2017-08-18 13:00:00 34.2 17 Norte 30 Norte 0 -- -- 24
2017-08-18 12:00:00 32.6 19 Norte 33 Norte -- -- -- 28
2017-08-18 11:00:00 30.5 14 Norte 26 Noroeste 0 -- -- 32
2017-08-18 10:00:00 30 6 Oeste 41 Norte 0 -- -- 31
2017-08-18 09:00:00 28.1 30 Norte 46 Norte 0 -- -- 33
2017-08-18 08:00:00 26.9 33 Norte 45 Norte 0 -- -- 35
2017-08-18 07:00:00 27.1 36 Norte 50 Norte 0 -- -- 35
2017-08-18 06:00:00 27.5 35 Norte 49 Norte 0 -- -- 35
2017-08-18 05:00:00 28.4 32 Norte 41 Norte 0 -- -- 32
2017-08-18 04:00:00 28.2 25 Norte 35 Norte 0 -- -- 32
2017-08-18 03:00:00 29.3 22 Norte 36 Norte 0 -- -- 30
2017-08-18 02:00:00 30.1 28 Norte 38 Norte 0 -- -- 29
2017-08-18 01:00:00 31 28 Norte 40 Norte 0 -- -- 27
2017-08-18 00:00:00 32 23 Norte 33 Noroeste 0 -- -- 26
2017-08-17 23:00:00 31.4 14 Norte 19 Noroeste 0 -- -- 26
2017-08-17 22:00:00 30.7 9 Norte 10 Norte 0 -- -- 25
2017-08-17 21:00:00 34.6 6 Norte 23 Sudoeste 0 -- -- 21
2017-08-17 20:00:00 37.6 10 Oeste 22 Oeste 0 -- -- 18
2017-08-17 19:00:00 37.6 13 Noroeste 25 Norte 0 -- -- 18
2017-08-17 18:00:00 37.8 12 Norte 26 Noroeste 0 -- -- 18
2017-08-17 17:00:00 38.2 8 Sur 21 Nordeste 0 -- -- 18
2017-08-17 16:00:00 37.2 8 Oeste 23 Noroeste 0 -- -- 21
2017-08-17 15:00:00 36.7 7 Noroeste 22 Nordeste 0 -- -- 23
2017-08-17 14:00:00 35.8 9 Este 28 Este 0 -- -- 22
2017-08-17 13:00:00 34 16 Este 29 Este 0 -- -- 25
2017-08-17 12:00:00 32 14 Norte 26 Nordeste 0 -- -- 29
2017-08-17 11:00:00 30 11 Norte 20 Norte 0 -- -- 31
2017-08-17 10:00:00 27.8 3 Sur 16 Oeste 0 -- -- 32
2017-08-17 09:00:00 26.5 7 Nordeste 19 Nordeste 0 -- -- 37
2017-08-17 08:00:00 24.8 10 Nordeste 27 Norte 0 -- -- 41
2017-08-17 07:00:00 25.8 18 Norte 37 Noroeste 0 -- -- 39
2017-08-17 06:00:00 26.2 27 Norte 39 Norte 0 -- -- 38
2017-08-17 05:00:00 26.5 27 Norte 41 Norte 0 -- -- 35
2017-08-17 04:00:00 27 25 Norte 40 Norte 0 -- -- 33
2017-08-17 03:00:00 27.6 29 Norte 42 Norte 0 -- -- 30
2017-08-17 02:00:00 28.4 26 Norte 38 Norte 0 -- -- 27
2017-08-17 01:00:00 28.8 24 Norte 34 Norte 0 -- -- 27
2017-08-17 00:00:00 29.7 23 Norte 31 Norte 0 -- -- 26
2017-08-16 23:00:00 30.2 19 Noroeste 29 Noroeste 0 -- -- 25
2017-08-16 22:00:00 31 18 Noroeste 26 Noroeste 0 -- -- 23
2017-08-16 21:00:00 33.1 17 Noroeste 27 Noroeste 0 -- -- 21
2017-08-16 20:00:00 34.9 11 Noroeste 23 Noroeste 0 -- -- 18
2017-08-16 19:00:00 35.2 16 Noroeste 26 Oeste 0 -- -- 18
2017-08-16 18:00:00 35.3 17 Noroeste 30 Norte 0 -- -- 17
2017-08-16 17:00:00 35.2 15 Noroeste 32 Oeste 0 -- -- 16
2017-08-16 16:00:00 34.2 13 Norte 43 Noroeste 0 -- -- 13
2017-08-16 15:00:00 33.5 19 Noroeste 30 Oeste 0 -- -- 13
2017-08-16 14:00:00 32.1 11 Norte 26 Noroeste 0 -- -- 19
2017-08-16 13:00:00 30.8 15 Norte 26 Norte 0 -- -- 24
2017-08-16 12:00:00 28.7 16 Norte 39 Norte 0 -- -- 31
2017-08-16 11:00:00 26.9 26 Norte 42 Norte 0 -- -- 34
2017-08-16 10:00:00 25.1 10 Oeste 20 Norte 0 -- -- 38
2017-08-16 09:00:00 21.1 5 Oeste 13 Nordeste 0 -- -- 47
2017-08-16 08:00:00 19.8 2 Sur 8 Sudeste 0 -- -- 51
2017-08-16 07:00:00 20.8 5 Sudoeste 24 Noroeste 0 -- -- 47
2017-08-16 06:00:00 20.2 5 Sudoeste 11 Sur 0 -- -- 49
2017-08-16 05:00:00 21.8 6 Sudoeste 18 Noroeste 0 -- -- 44
2017-08-16 04:00:00 22.5 7 Oeste 18 Noroeste 0 -- -- 44
2017-08-16 03:00:00 23.1 4 Sudoeste 15 Sudoeste 0 -- -- 44
2017-08-16 02:00:00 24.6 9 Oeste 28 Noroeste 0 -- -- 42
2017-08-16 01:00:00 25.9 20 Noroeste 32 Noroeste 0 -- -- 39
2017-08-16 00:00:00 26.7 17 Noroeste 33 Noroeste 0 -- -- 35
2017-08-15 23:00:00 28 19 Oeste 37 Oeste 0 -- -- 30
2017-08-15 22:00:00 29.8 26 Oeste 36 Oeste 0 -- -- 22
2017-08-15 21:00:00 32.1 18 Oeste 30 Sudoeste 0 -- -- 18
2017-08-15 20:00:00 34.7 17 Oeste 33 Oeste 0 -- -- 16
2017-08-15 19:00:00 35 23 Oeste 35 Oeste 0 -- -- 18
2017-08-15 18:00:00 35.8 23 Oeste 39 Oeste 0 -- -- 18
2017-08-15 17:00:00 36.3 20 Sudoeste 33 Oeste 0 -- -- 18
2017-08-15 16:00:00 35.4 15 Sudoeste 32 Oeste 0 -- -- 20
2017-08-15 15:00:00 34.3 13 Oeste 31 Oeste 0 -- -- 20
2017-08-15 14:00:00 32.4 16 Sudoeste 24 Sudoeste 0 -- -- 25
2017-08-15 13:00:00 30.7 12 Oeste 22 Sudoeste 0 -- -- 30
2017-08-15 12:00:00 28.4 5 Sudoeste 10 Sur 0 -- -- 35
2017-08-15 11:00:00 25.8 4 Sur 8 Sudoeste 0 -- -- 43
2017-08-15 10:00:00 23.6 3 Sudeste 6 Sudeste 0 -- -- 49
2017-08-15 09:00:00 20.6 0 Calma 3 Este 0 -- -- 56
2017-08-15 08:00:00 19.1 0 Calma 5 Este 0 -- -- 56
2017-08-15 07:00:00 20 3 Sudoeste 6 Oeste 0 -- -- 54
2017-08-15 06:00:00 21 2 Sur 5 Este 0 -- -- 51
2017-08-15 05:00:00 21.9 2 Oeste 8 Sudoeste 0 -- -- 48
2017-08-15 04:00:00 23.1 6 Este 14 Sudoeste 0 -- -- 45
2017-08-15 03:00:00 24.8 5 Oeste 17 Sudoeste 0 -- -- 40
2017-08-15 02:00:00 26.3 9 Sudoeste 17 Sudoeste 0 -- -- 35
2017-08-15 01:00:00 28.1 6 Sudoeste 23 Norte 0 -- -- 30
2017-08-15 00:00:00 30.1 13 Noroeste 37 Oeste 0 -- -- 27
2017-08-14 23:00:00 30.8 25 Oeste 42 Oeste 0 -- -- 23
2017-08-14 22:00:00 31.4 16 Oeste 24 Oeste 0 -- -- 24
2017-08-14 21:00:00 34.1 10 Sudoeste 18 Sudoeste 0 -- -- 22
2017-08-14 20:00:00 36.2 12 Sudoeste 27 Oeste 0 -- -- 21
2017-08-14 19:00:00 37.2 11 Sudoeste 30 Sudoeste 0 -- -- 20
2017-08-14 18:00:00 37.3 11 Sudoeste 30 Sudoeste 0 -- -- 20
2017-08-14 17:00:00 37.2 12 Sudoeste 25 Sudoeste 0 -- -- 19
2017-08-14 16:00:00 36.5 14 Sudoeste 27 Sur 0 -- -- 20
2017-08-14 15:00:00 35.5 14 Sur 34 Sur 0 -- -- 21
2017-08-14 14:00:00 34.6 12 Sudoeste 31 Este 0 -- -- 22
2017-08-14 13:00:00 32.9 15 Este 29 Este 0 -- -- 26
2017-08-14 12:00:00 30.5 18 Este 29 Sudeste 0 -- -- 29
2017-08-14 11:00:00 27.9 19 Este 32 Este 0 -- -- 35
2017-08-14 10:00:00 26.3 19 Este 34 Este 0 -- -- 39
2017-08-14 09:00:00 25.3 19 Este 31 Este 0 -- -- 34
2017-08-14 08:00:00 24 9 Nordeste 17 Nordeste 0 -- -- 30
2017-08-14 07:00:00 25 10 Este 17 Nordeste 0 -- -- 28
2017-08-14 06:00:00 25 10 Este 19 Nordeste 0 -- -- 28
2017-08-14 05:00:00 27.9 12 Norte 21 Norte 0 -- -- 25
2017-08-14 04:00:00 25.5 7 Sudeste 12 Nordeste 0 -- -- 27
2017-08-14 03:00:00 25.5 6 Oeste 17 Norte 0 -- -- 27
2017-08-14 02:00:00 28.8 7 Oeste 16 Noroeste 0 -- -- 22
2017-08-14 01:00:00 29.2 9 Nordeste 12 Nordeste 0 -- -- 22
2017-08-14 00:00:00 29.2 11 Este 18 Este 0 -- -- 22
2017-08-13 23:00:00 30.5 11 Norte 17 Norte 0 -- -- 20
2017-08-13 22:00:00 31 14 Norte 20 Norte 0 -- -- 20
2017-08-13 21:00:00 32.6 13 Norte 21 Norte 0 -- -- 20
2017-08-13 20:00:00 35.4 15 Norte 26 Norte 0 -- -- 18
2017-08-13 19:00:00 37.3 9 Oeste 24 Sudoeste 0 -- -- 14
2017-08-13 18:00:00 37.9 13 Sudoeste 27 Sudoeste 0 -- -- 14
2017-08-13 17:00:00 37.7 12 Oeste 32 Sudoeste 0 -- -- 15
2017-08-13 16:00:00 36.2 10 Norte 23 Sudeste 0 -- -- 16
2017-08-13 15:00:00 35.4 10 Este 21 Este 0 -- -- 18
2017-08-13 14:00:00 34.2 9 Este 26 Sudeste 0 -- -- 20
2017-08-13 13:00:00 32.3 13 Este 25 Este 0 -- -- 24
2017-08-13 12:00:00 29.9 15 Este 31 Este 0 -- -- 27
2017-08-13 11:00:00 27.6 24 Este 43 Este 0 -- -- 30
2017-08-13 10:00:00 26.2 29 Este 42 Este 0 -- -- 31
2017-08-13 09:00:00 24.9 22 Este 35 Este 0 -- -- 28
2017-08-13 08:00:00 22.1 8 Nordeste 17 Este 0 -- -- 32
2017-08-13 07:00:00 21.8 9 Nordeste 13 Este 0 -- -- 31
2017-08-13 06:00:00 22.6 2 Sur 6 Oeste 0 -- -- 29
2017-08-13 05:00:00 24.2 2 Norte 9 Norte 0 -- -- 24
2017-08-13 04:00:00 23.4 4 Norte 18 Norte 0 -- -- 27
2017-08-13 03:00:00 27 14 Norte 18 Norte 0 -- -- 21
2017-08-13 02:00:00 25.7 4 Oeste 16 Norte 0 -- -- 21
2017-08-13 01:00:00 28.7 12 Norte 17 Norte 0 -- -- 18
2017-08-13 00:00:00 28.6 9 Norte 12 Norte 0 -- -- 18
2017-08-12 23:00:00 28.2 8 Norte 13 Norte 0 -- -- 18
2017-08-12 22:00:00 28.8 8 Norte 9 Norte 0 -- -- 18
2017-08-12 21:00:00 31.1 6 Noroeste 9 Norte 0 -- -- 18
2017-08-12 20:00:00 34.2 4 Este 16 Norte 0 -- -- 15
2017-08-12 19:00:00 35.1 5 Sudoeste 21 Norte 0 -- -- 15
2017-08-12 18:00:00 34.7 13 Norte 25 Noroeste 0 -- -- 15
2017-08-12 17:00:00 35.1 5 Nordeste 27 Nordeste 0 -- -- 15
2017-08-12 16:00:00 34.3 13 Sudeste 24 Sudeste 0 -- -- 16
2017-08-12 15:00:00 33.8 7 Sudeste 25 Este 0 -- -- 15
2017-08-12 14:00:00 32 10 Nordeste 26 Este 0 -- -- 19
2017-08-12 13:00:00 30.6 19 Este 32 Este 0 -- -- 23
2017-08-12 12:00:00 28.7 22 Este 41 Este 0 -- -- 28
2017-08-12 11:00:00 26.4 26 Este 45 Este 0 -- -- 33
2017-08-12 10:00:00 24.3 26 Este 48 Este 0 -- -- 35
2017-08-12 09:00:00 23.1 28 Este 44 Este 0 -- -- 31
2017-08-12 08:00:00 22.2 21 Este 36 Este 0 -- -- 29
2017-08-12 07:00:00 22.6 24 Este 39 Este 0 -- -- 27
2017-08-12 06:00:00 23.6 22 Este 34 Este 0 -- -- 23
2017-08-12 05:00:00 24.9 14 Nordeste 20 Nordeste 0 -- -- 20
2017-08-12 04:00:00 24.9 13 Nordeste 24 Norte 0 -- -- 20
2017-08-12 03:00:00 25.6 16 Norte 22 Norte 0 -- -- 20
2017-08-12 02:00:00 25.3 19 Norte 35 Norte 0 -- -- 20
2017-08-12 01:00:00 25.8 27 Norte 37 Norte 0 -- -- 18
2017-08-12 00:00:00 26.4 25 Norte 38 Norte 0 -- -- 17
2017-08-11 23:00:00 27.2 21 Norte 35 Norte 0 -- -- 16
2017-08-11 22:00:00 27.7 17 Norte 25 Norte 0 -- -- 17
2017-08-11 21:00:00 30.3 10 Norte 21 Norte 0 -- -- 20
2017-08-11 20:00:00 32.4 13 Norte 28 Noroeste 0 -- -- 17
2017-08-11 19:00:00 33.2 12 Noroeste 39 Norte 0 -- -- 17
2017-08-11 18:00:00 33 8 Nordeste 24 Noroeste 0 -- -- 15
2017-08-11 17:00:00 32.3 8 Norte 23 Noroeste 0 -- -- 16
2017-08-11 16:00:00 31.4 9 Norte 27 Noroeste 0 -- -- 19
2017-08-11 15:00:00 30.8 9 Este 23 Sudeste 0 -- -- 20
2017-08-11 14:00:00 29.7 12 Sudeste 32 Este 0 -- -- 22
2017-08-11 13:00:00 28.4 17 Este 36 Este 0 -- -- 26
2017-08-11 12:00:00 26.5 18 Este 35 Este 0 -- -- 28
2017-08-11 11:00:00 24.8 21 Este 32 Este 0 -- -- 32
2017-08-11 10:00:00 22.7 19 Este 48 Este 0 -- -- 36
2017-08-11 09:00:00 20.7 28 Este 44 Este 0 -- -- 39
2017-08-11 08:00:00 19.7 24 Este 35 Este 0 -- -- 40
2017-08-11 07:00:00 20.4 21 Nordeste 39 Este 0 -- -- 38
2017-08-11 06:00:00 21.4 23 Este 44 Este 0 -- -- 33
2017-08-11 05:00:00 22 16 Nordeste 23 Nordeste 0 -- -- 30
2017-08-11 04:00:00 22.9 14 Nordeste 26 Norte 0 -- -- 29
2017-08-11 03:00:00 22.4 16 Norte 29 Norte 0 -- -- 30
2017-08-11 02:00:00 22.9 18 Norte 28 Norte 0 -- -- 30
2017-08-11 01:00:00 23.3 18 Norte 32 Norte 0 -- -- 29
2017-08-11 00:00:00 24 22 Norte 34 Norte 0 -- -- 28
2017-08-10 23:00:00 24.7 17 Norte 27 Norte 0 -- -- 27
2017-08-10 22:00:00 25.2 13 Norte 17 Norte 0 -- -- 25
2017-08-10 21:00:00 28.7 7 Norte 17 Este 0 -- -- 20
2017-08-10 20:00:00 30 7 Norte 23 Nordeste 0 -- -- 17
2017-08-10 19:00:00 29.8 10 Este 25 Nordeste 0 -- -- 16
2017-08-10 18:00:00 29.7 10 Este 28 Este 0 -- -- 14
2017-08-10 17:00:00 29.5 12 Este 30 Nordeste 0 -- -- 14
2017-08-10 16:00:00 28.8 15 Nordeste 30 Nordeste 0 -- -- 18
2017-08-10 15:00:00 26.9 19 Nordeste 35 Este 0 -- -- 20
2017-08-10 14:00:00 25.9 19 Este 35 Sudeste 0 -- -- 23
2017-08-10 13:00:00 24.2 23 Este 37 Este 0 -- -- 27
2017-08-10 12:00:00 22.4 21 Este 45 Este 0 -- -- 30
2017-08-10 11:00:00 20.7 26 Este 47 Este 0 -- -- 32
2017-08-10 10:00:00 18.9 29 Este 45 Nordeste 0 -- -- 36
2017-08-10 09:00:00 17.5 22 Nordeste 37 Nordeste 0 -- -- 41
2017-08-10 08:00:00 16.5 21 Nordeste 33 Nordeste 0 -- -- 43
2017-08-10 07:00:00 16.4 19 Nordeste 30 Nordeste 0 -- -- 44
2017-08-10 06:00:00 16.6 17 Nordeste 37 Nordeste 0 -- -- 43
2017-08-10 05:00:00 16.8 28 Norte 48 Norte 0 -- -- 42
2017-08-10 04:00:00 17.6 32 Norte 46 Norte 0 -- -- 41
2017-08-10 03:00:00 19.1 28 Norte 44 Norte 0 -- -- 36
2017-08-10 02:00:00 20 30 Norte 51 Norte 0 -- -- 34
2017-08-10 01:00:00 20.7 35 Norte 57 Norte 0 -- -- 34
2017-08-10 00:00:00 21.8 40 Norte 63 Norte 0 -- -- 29
2017-08-09 23:00:00 22.6 42 Norte 64 Norte 0 -- -- 26
2017-08-09 22:00:00 23.6 39 Norte 59 Norte 0 -- -- 25
2017-08-09 21:00:00 25.4 26 Norte 42 Norte 0 -- -- 25
2017-08-09 20:00:00 27.2 26 Norte 41 Norte 0 -- -- 23
2017-08-09 19:00:00 28.4 23 Norte 39 Norte 0 -- -- 22
2017-08-09 18:00:00 28.7 22 Norte 42 Nordeste 0 -- -- 24
2017-08-09 17:00:00 28.9 19 Norte 37 Norte 0 -- -- 26
2017-08-09 16:00:00 28.3 14 Norte 35 Norte 0 -- -- 28
2017-08-09 15:00:00 27.7 15 Norte 35 Noroeste 0 -- -- 29
2017-08-09 14:00:00 26.5 16 Norte 33 Noroeste 0 -- -- 30
2017-08-09 13:00:00 25.3 15 Norte 33 Norte 0 -- -- 34
2017-08-09 12:00:00 23.8 17 Norte 37 Norte 0 -- -- 34
2017-08-09 11:00:00 22.1 25 Norte 46 Norte 0 -- -- 37
2017-08-09 10:00:00 20 30 Norte 49 Norte 0 -- -- 41
2017-08-09 09:00:00 19.2 35 Norte 46 Norte 0 -- -- 42
2017-08-09 08:00:00 17.8 31 Norte 45 Norte 0 -- -- 46
2017-08-09 07:00:00 18.4 31 Norte 50 Norte 0 -- -- 44
2017-08-09 06:00:00 19.3 35 Norte 50 Norte 0 -- -- 41
2017-08-09 05:00:00 19.4 34 Norte 47 Norte 0 -- -- 42
2017-08-09 04:00:00 20.5 33 Norte 46 Norte 0 -- -- 40
2017-08-09 03:00:00 21.1 33 Norte 47 Norte 0 -- -- 40
2017-08-09 02:00:00 21.8 33 Norte 46 Norte 0 -- -- 36
2017-08-09 01:00:00 22.8 33 Norte 51 Noroeste 0 -- -- 33
2017-08-09 00:00:00 24.4 22 Noroeste 33 Norte 0 -- -- 25
2017-08-08 23:00:00 25.3 21 Norte 37 Noroeste 0 -- -- 23
2017-08-08 22:00:00 26.4 24 Noroeste 38 Noroeste 0 -- -- 21
2017-08-08 21:00:00 28.8 14 Noroeste 29 Noroeste 0 -- -- 20
2017-08-08 20:00:00 30.4 11 Noroeste 35 Oeste 0 -- -- 19
2017-08-08 19:00:00 30.7 13 Noroeste 33 Noroeste 0 -- -- 21
2017-08-08 18:00:00 30.2 14 Noroeste 33 Oeste 0 -- -- 23
2017-08-08 17:00:00 30.6 14 Norte 29 Noroeste 0 -- -- 23
2017-08-08 16:00:00 29.2 9 Norte 30 Norte 0 -- -- 25
2017-08-08 15:00:00 28.1 15 Noroeste 34 Noroeste 0 -- -- 23
2017-08-08 14:00:00 26.8 18 Norte 31 Norte 0 -- -- 27
2017-08-08 13:00:00 25.4 14 Norte 32 Noroeste 0 -- -- 32
2017-08-08 12:00:00 23.5 17 Norte 38 Norte 0 -- -- 39
2017-08-08 11:00:00 21.6 26 Norte 42 Norte 0 -- -- 45
2017-08-08 10:00:00 20 25 Norte 40 Noroeste 0 -- -- 47
2017-08-08 09:00:00 18.4 21 Norte 37 Noroeste 0 -- -- 52
2017-08-08 08:00:00 -- -- -- -- -- -- -- -- --
2017-08-08 07:00:00 -- -- -- -- -- -- -- -- --
2017-08-08 06:00:00 -- -- -- -- -- -- -- -- --
2017-08-08 05:00:00 -- -- -- -- -- -- -- -- --
2017-08-08 04:00:00 -- -- -- -- -- -- -- -- --
2017-08-08 03:00:00 -- -- -- -- -- -- -- -- --
2017-08-08 02:00:00 -- -- -- -- -- -- -- -- --
2017-08-08 01:00:00 -- -- -- -- -- -- -- -- --
2017-08-08 00:00:00 -- -- -- -- -- -- -- -- --
2017-08-07 23:00:00 23.7 26 Oeste 39 Oeste 0 -- -- 32
2017-08-07 22:00:00 26 24 Oeste 47 Oeste 0 -- -- 23
2017-08-07 21:00:00 28.3 27 Oeste 45 Oeste 0 -- -- 21
2017-08-07 20:00:00 30.8 28 Oeste 43 Oeste 0 -- -- 19
2017-08-07 19:00:00 33.2 29 Oeste 46 Oeste 0 -- -- 10
2017-08-07 18:00:00 35.6 26 Oeste 44 Oeste 0 -- -- 12
2017-08-07 17:00:00 35.7 23 Oeste 42 Oeste 0 -- -- 11
2017-08-07 16:00:00 35.4 26 Sudoeste 42 Sudoeste 0 -- -- 10
2017-08-07 15:00:00 34.3 16 Oeste 35 Oeste 0 -- -- 16
2017-08-07 14:00:00 32.6 13 Sudoeste 29 Sudoeste 0 -- -- 23
2017-08-07 13:00:00 29.9 11 Sudoeste 22 Sudoeste 0 -- -- 33
2017-08-07 12:00:00 28 11 Sudoeste 17 Sudoeste 0 -- -- 38
2017-08-07 11:00:00 25.1 9 Sudoeste 17 Sudoeste 0 -- -- 42
2017-08-07 10:00:00 22.4 9 Sudoeste 18 Sudoeste 0 -- -- 47
2017-08-07 09:00:00 20.4 12 Sudoeste 16 Sudoeste 0 -- -- 55
2017-08-07 08:00:00 18.2 8 Sudoeste 13 Sudoeste 0 -- -- 63
2017-08-07 07:00:00 19.1 7 Sur 15 Sudoeste 0 -- -- 59
2017-08-07 06:00:00 19.9 10 Sudoeste 15 Oeste 0 -- -- 57
2017-08-07 05:00:00 20.9 9 Sudoeste 17 Oeste 0 -- -- 53
2017-08-07 04:00:00 23 12 Sudoeste 23 Oeste 0 -- -- 45
2017-08-07 03:00:00 24.8 16 Sudoeste 23 Oeste 0 -- -- 41
2017-08-07 02:00:00 25.8 15 Sudoeste 27 Oeste 0 -- -- 44
2017-08-07 01:00:00 27.2 18 Oeste 27 Oeste 0 -- -- 41
2017-08-07 00:00:00 28.4 18 Oeste 31 Oeste 0 -- -- 30
2017-08-06 23:00:00 29.8 8 Noroeste 13 Noroeste 0 -- -- 23
2017-08-06 22:00:00 30.8 10 Noroeste 14 Noroeste 0 -- -- 19
2017-08-06 21:00:00 34.4 11 Noroeste 22 Oeste 0 -- -- 17
2017-08-06 20:00:00 35.8 12 Oeste 27 Oeste 0 -- -- 18
2017-08-06 19:00:00 36.5 8 Oeste 32 Oeste 0 -- -- 19
2017-08-06 18:00:00 36.7 15 Sudoeste 30 Sudoeste 0 -- -- 16
2017-08-06 17:00:00 36.2 16 Sudoeste 26 Sudoeste 0 -- -- 23
2017-08-06 16:00:00 34.4 14 Noroeste 25 Noroeste 0 -- -- 26
2017-08-06 15:00:00 33.4 9 Norte 27 Noroeste 0 -- -- 29
2017-08-06 14:00:00 32.2 13 Norte 22 Norte 0 -- -- 32
2017-08-06 13:00:00 30.3 8 Norte 19 Norte 0 -- -- 33
2017-08-06 12:00:00 28.1 13 Norte 34 Norte 0 -- -- 38
2017-08-06 11:00:00 25.5 24 Norte 35 Norte 0 -- -- 45
2017-08-06 10:00:00 24.3 18 Norte 30 Norte 0 -- -- 47
2017-08-06 09:00:00 22.4 19 Norte 35 Norte 0 -- -- 52
2017-08-06 08:00:00 21.1 24 Norte 39 Norte 0 -- -- 56
2017-08-06 07:00:00 21.2 10 Noroeste 44 Noroeste 0 -- -- 56
2017-08-06 06:00:00 22.1 35 Norte 48 Norte 0 -- -- 54
2017-08-06 05:00:00 23.3 34 Norte 49 Norte 0 -- -- 52
2017-08-06 04:00:00 25.3 37 Norte 53 Norte 0 -- -- 47
2017-08-06 03:00:00 26.6 25 Noroeste 41 Noroeste 0 -- -- 43
2017-08-06 02:00:00 27.2 14 Noroeste 28 Norte 0 -- -- 44
2017-08-06 01:00:00 27.5 14 Oeste 29 Noroeste 0 -- -- 44
2017-08-06 00:00:00 29.5 16 Noroeste 36 Noroeste 0 -- -- 37
2017-08-05 23:00:00 31.4 28 Noroeste 43 Oeste 0 -- -- 31
2017-08-05 22:00:00 33 24 Oeste 38 Oeste 0 -- -- 25
2017-08-05 21:00:00 36.3 21 Oeste 31 Oeste 0 -- -- 22
2017-08-05 20:00:00 38.2 19 Oeste 31 Sudoeste 0 -- -- 16
2017-08-05 19:00:00 38.7 18 Oeste 34 Sudoeste 0 -- -- 16
2017-08-05 18:00:00 38.9 19 Oeste 36 Oeste 0 -- -- 19
2017-08-05 17:00:00 39.4 24 Sudoeste 38 Sudoeste 0 -- -- 18
2017-08-05 16:00:00 38.3 25 Oeste 38 Oeste 0 -- -- 19
2017-08-05 15:00:00 38.4 20 Sudoeste 34 Sudoeste 0 -- -- 17
2017-08-05 14:00:00 37.5 13 Oeste 32 Oeste 0 -- -- 21
2017-08-05 13:00:00 35.6 11 Norte 24 Noroeste 0 -- -- 22
2017-08-05 12:00:00 33.7 15 Norte 30 Norte 0 -- -- 29
2017-08-05 11:00:00 31.5 12 Norte 24 Norte 0 -- -- 34
2017-08-05 10:00:00 29.5 13 Norte 23 Nordeste 0 -- -- 39
2017-08-05 09:00:00 26.9 7 Sudoeste 17 Sudoeste 0 -- -- 44
2017-08-05 08:00:00 24.8 3 Sudeste 15 Sur 0 -- -- 46
2017-08-05 07:00:00 26.2 4 Sudeste 32 Norte 0 -- -- 41
2017-08-05 06:00:00 27.9 24 Norte 44 Norte 0 -- -- 38
2017-08-05 05:00:00 28.2 34 Norte 47 Norte 0 -- -- 37
2017-08-05 04:00:00 28.9 33 Norte 45 Norte 0 -- -- 37
2017-08-05 03:00:00 29.8 28 Norte 41 Norte 0 -- -- 34
2017-08-05 02:00:00 30.7 27 Norte 38 Norte 0 -- -- 34
2017-08-05 01:00:00 31.6 26 Norte 39 Noroeste 0 -- -- 30
2017-08-05 00:00:00 32.6 30 Norte 42 Norte 0 -- -- 27
2017-08-04 23:00:00 34 25 Norte 37 Noroeste 0 -- -- 24
2017-08-04 22:00:00 35.6 18 Noroeste 24 Noroeste 0 -- -- 23
2017-08-04 21:00:00 38.1 12 Noroeste 38 Oeste 0 -- -- 20
2017-08-04 20:00:00 39.1 9 Norte 33 Oeste 0 -- -- 23
2017-08-04 19:00:00 40.3 11 Sudoeste 36 Oeste 0 -- -- 20
2017-08-04 18:00:00 39.7 13 Noroeste 26 Oeste 0 -- -- 20
2017-08-04 17:00:00 39.1 13 Noroeste 29 Norte 0 -- -- 23
2017-08-04 16:00:00 38 16 Noroeste 26 Noroeste 0 -- -- 23
2017-08-04 15:00:00 37.2 12 Norte 23 Norte 0 -- -- 25
2017-08-04 14:00:00 36.3 6 Nordeste 17 Nordeste 0 -- -- 28
2017-08-04 13:00:00 34.5 7 Norte 23 Norte 0 -- -- 33
2017-08-04 12:00:00 32.6 16 Norte 37 Norte 0 -- -- 37
2017-08-04 11:00:00 30.6 27 Norte 42 Noroeste 0 -- -- 41
2017-08-04 10:00:00 28.1 23 Norte 39 Norte 0 -- -- 47
2017-08-04 09:00:00 26.4 10 Nordeste 22 Nordeste 0 -- -- 51
2017-08-04 08:00:00 25.3 7 Norte 33 Norte 0 -- -- 54
2017-08-04 07:00:00 25 21 Norte 33 Norte 0 -- -- 54
2017-08-04 06:00:00 25.4 18 Norte 32 Noroeste 0 -- -- 51
2017-08-04 05:00:00 25.3 23 Norte 33 Norte 0 -- -- 52
2017-08-04 04:00:00 26 25 Norte 35 Norte 0 -- -- 50
2017-08-04 03:00:00 26.9 27 Norte 41 Norte 0 -- -- 47
2017-08-04 02:00:00 28.2 29 Norte 37 Norte 0 -- -- 43
2017-08-04 01:00:00 29.1 27 Norte 41 Norte 0 -- -- 41
2017-08-04 00:00:00 30.2 32 Norte 41 Noroeste 0 -- -- 39
2017-08-03 23:00:00 31.3 23 Noroeste 33 Noroeste 0 -- -- 39
2017-08-03 22:00:00 32.7 14 Noroeste 27 Norte 0 -- -- 33
2017-08-03 21:00:00 34.8 16 Norte 31 Norte 0 -- -- 29
2017-08-03 20:00:00 36.3 15 Norte 27 Noroeste 0 -- -- 27
2017-08-03 19:00:00 37 15 Norte 29 Norte 0 -- -- 27
2017-08-03 18:00:00 37.5 8 Nordeste 28 Noroeste 0 -- -- 22
2017-08-03 17:00:00 37.8 15 Oeste 32 Oeste 0 -- -- 20
2017-08-03 16:00:00 36.6 11 Oeste 27 Oeste 0 -- -- 20
2017-08-03 15:00:00 35.4 17 Oeste 34 Oeste 0 -- -- 19
2017-08-03 14:00:00 35.2 15 Oeste 25 Oeste 0 -- -- 18
2017-08-03 13:00:00 33.2 12 Norte 24 Nordeste 0 -- -- 20
2017-08-03 12:00:00 31.5 11 Noroeste 18 Noroeste 0 -- -- 22
2017-08-03 11:00:00 29.4 5 Norte 22 Norte 0 -- -- 25
2017-08-03 10:00:00 26.9 14 Norte 21 Norte 0 -- -- 27
2017-08-03 09:00:00 23.8 9 Noroeste 20 Norte 0 -- -- 32
2017-08-03 08:00:00 23.7 14 Norte 24 Norte 0 -- -- 31
2017-08-03 07:00:00 22.4 4 Este 9 Oeste 0 -- -- 36
2017-08-03 06:00:00 23.3 3 Norte 11 Norte 0 -- -- 37
2017-08-03 05:00:00 23.5 3 Este 10 Nordeste 0 -- -- 37
2017-08-03 04:00:00 23.5 3 Sudoeste 10 Oeste 0 -- -- 37
2017-08-03 03:00:00 24.4 5 Sudoeste 24 Oeste 0 -- -- 36
2017-08-03 02:00:00 24.8 7 Oeste 23 Noroeste 0 -- -- 36
2017-08-03 01:00:00 26.9 7 Noroeste 44 Noroeste 0 -- -- 32
2017-08-03 00:00:00 29 22 Noroeste 43 Noroeste 0 -- -- 29
2017-08-02 23:00:00 30.5 17 Oeste 35 Oeste 0 -- -- 21
2017-08-02 22:00:00 30.2 5 Noroeste 14 Oeste 0 -- -- 18
2017-08-02 21:00:00 34.1 7 Oeste 22 Sudoeste 0 -- -- 15
2017-08-02 20:00:00 35.1 11 Oeste 22 Oeste 0 -- -- 14
2017-08-02 19:00:00 35.4 15 Noroeste 23 Oeste 0 -- -- 15
2017-08-02 18:00:00 35.4 11 Noroeste 27 Oeste 0 -- -- 16
2017-08-02 17:00:00 35.2 17 Sudoeste 28 Sudoeste 0 -- -- 16
2017-08-02 16:00:00 34.3 10 Sur 28 Sudoeste 0 -- -- 18
2017-08-02 15:00:00 33.7 15 Oeste 28 Sudoeste 0 -- -- 18
2017-08-02 14:00:00 32.7 14 Sudoeste 28 Sudoeste 0 -- -- 22
2017-08-02 13:00:00 31.1 9 Sudoeste 18 Oeste 0 -- -- 25
2017-08-02 12:00:00 28.8 8 Sudoeste 15 Sur 0 -- -- 30
2017-08-02 11:00:00 25.6 7 Sur 14 Sudoeste 0 -- -- 37
2017-08-02 10:00:00 22.8 4 Sur 9 Sudoeste 0 -- -- 40
2017-08-02 09:00:00 19.7 0 Calma 6 Nordeste 0 -- -- 48
2017-08-02 08:00:00 16.8 3 Nordeste 6 Oeste 0 -- -- 55
2017-08-02 07:00:00 16.6 4 Este 9 Oeste 0 -- -- 55
2017-08-02 06:00:00 17.3 4 Oeste 8 Sudoeste 0 -- -- 53
2017-08-02 05:00:00 18.5 5 Oeste 10 Sudoeste 0 -- -- 50
2017-08-02 04:00:00 19.8 4 Sudoeste 9 Sur 0 -- -- 45
2017-08-02 03:00:00 22.2 3 Sudoeste 27 Noroeste 0 -- -- 40
2017-08-02 02:00:00 23.3 10 Oeste 35 Norte 0 -- -- 39
2017-08-02 01:00:00 23.9 24 Noroeste 41 Noroeste 0 -- -- 38
2017-08-02 00:00:00 25.6 22 Noroeste 35 Noroeste 0 -- -- 32
2017-08-01 23:00:00 25.1 12 Oeste 20 Oeste 0 -- -- 28
2017-08-01 22:00:00 27.2 5 Noroeste 17 Oeste 0 -- -- 21
2017-08-01 21:00:00 29.9 14 Sudoeste 27 Sudoeste 0 -- -- 19
2017-08-01 20:00:00 32.1 12 Oeste 25 Sudoeste 0 -- -- 18
2017-08-01 19:00:00 32.2 10 Oeste 27 Sudoeste 0 -- -- 18
2017-08-01 18:00:00 32.3 11 Sudoeste 25 Sudoeste 0 -- -- 19
2017-08-01 17:00:00 32.2 14 Sudoeste 30 Oeste 0 -- -- 16
2017-08-01 16:00:00 31.4 23 Sudoeste 36 Sudoeste 0 -- -- 22
2017-08-01 15:00:00 30.6 17 Sudoeste 33 Sudoeste 0 -- -- 26
2017-08-01 14:00:00 29.8 10 Sudoeste 23 Oeste 0 -- -- 28
2017-08-01 13:00:00 26.9 9 Noroeste 19 Noroeste 0 -- -- 34
2017-08-01 12:00:00 26 10 Nordeste 21 Norte 0 -- -- 36
2017-08-01 11:00:00 23.8 4 Nordeste 21 Norte 0 -- -- 40
2017-08-01 10:00:00 21 6 Sudeste 10 Este 0 -- -- 47
2017-08-01 09:00:00 17.5 0 Calma 5 Sudoeste 0 -- -- 56
2017-08-01 08:00:00 16.1 5 Sudeste 8 Sur 0 -- -- 61
2017-08-01 07:00:00 16.3 6 Sur 13 Sur 0 -- -- 63
2017-08-01 06:00:00 17.6 7 Sudoeste 17 Sudoeste 0 -- -- 60
2017-08-01 05:00:00 17.7 3 Oeste 19 Oeste 0 -- -- 61
2017-08-01 04:00:00 18.4 9 Sudoeste 22 Sudoeste 0 -- -- 60
2017-08-01 03:00:00 19 10 Oeste 14 Oeste 0 -- -- 56
2017-08-01 02:00:00 19.6 6 Sudoeste 13 Sudoeste 0 -- -- 56
2017-08-01 01:00:00 20.3 4 Sur 23 Sudoeste 0 -- -- 55
2017-08-01 00:00:00 21 12 Sudoeste 21 Oeste 0 -- -- 55
2017-07-31 23:00:00 22.8 9 Sudoeste 35 Norte 0 -- -- 44
2017-07-31 22:00:00 22.6 11 Norte 42 Norte 0 -- -- 42
2017-07-31 21:00:00 22.8 31 Norte 49 Noroeste 0 -- -- 43
2017-07-31 20:00:00 23.9 37 Noroeste 52 Noroeste 0 -- -- 38
2017-07-31 19:00:00 27.5 37 Noroeste 50 Noroeste 0 -- -- 27
2017-07-31 18:00:00 32.2 19 Oeste 31 Sudoeste 0 -- -- 17
2017-07-31 17:00:00 32.1 15 Sudoeste 27 Sudoeste 0 -- -- 19
2017-07-31 16:00:00 30.9 16 Oeste 31 Oeste 0 -- -- 22
2017-07-31 15:00:00 31.7 17 Sudoeste 30 Sudoeste 0 -- -- 21
2017-07-31 14:00:00 30.5 18 Sudoeste 33 Sur 0 -- -- 25
2017-07-31 13:00:00 28.5 15 Sudoeste 28 Sudoeste 0 -- -- 31
2017-07-31 12:00:00 26.1 12 Sudoeste 21 Sudoeste 0 -- -- 38
2017-07-31 11:00:00 23.7 6 Oeste 13 Sudoeste 0 -- -- 45
2017-07-31 10:00:00 20.6 4 Sudoeste 10 Oeste 0 -- -- 52
2017-07-31 09:00:00 18.1 6 Sudoeste 9 Sudoeste 0 -- -- 60
2017-07-31 08:00:00 15.4 4 Oeste 7 Oeste 0 -- -- 66
2017-07-31 07:00:00 15.7 4 Sudoeste 9 Sudoeste 0 -- -- 65
2017-07-31 06:00:00 16.3 3 Sudoeste 10 Oeste 0 -- -- 62
2017-07-31 05:00:00 17.7 3 Sudoeste 15 Oeste 0 -- -- 57
2017-07-31 04:00:00 18.9 9 Sudoeste 23 Sudoeste 0 -- -- 53
2017-07-31 03:00:00 20.2 16 Sudoeste 26 Sudoeste 0 -- -- 47
2017-07-31 02:00:00 21.9 12 Oeste 27 Sudoeste 0 -- -- 40
2017-07-31 01:00:00 24 13 Oeste 29 Oeste 0 -- -- 31
2017-07-31 00:00:00 26.8 10 Oeste 34 Noroeste 0 -- -- 22
2017-07-30 23:00:00 28.7 22 Oeste 37 Oeste 0 -- -- 27
2017-07-30 22:00:00 30.4 21 Oeste 33 Oeste 0 -- -- 24
2017-07-30 21:00:00 33.1 18 Oeste 33 Oeste 0 -- -- 21
2017-07-30 20:00:00 35.1 21 Oeste 33 Oeste 0 -- -- 19
2017-07-30 19:00:00 36.2 23 Sudoeste 37 Oeste 0 -- -- 19
2017-07-30 18:00:00 36.6 19 Oeste 38 Sudoeste 0 -- -- 18
2017-07-30 17:00:00 36.4 17 Oeste 42 Oeste 0 -- -- 18
2017-07-30 16:00:00 35.5 19 Oeste 36 Sudoeste 0 -- -- 19
2017-07-30 15:00:00 35.2 14 Oeste 32 Oeste 0 -- -- 18
2017-07-30 14:00:00 34.2 15 Sudoeste 28 Sudoeste 0 -- -- 22
2017-07-30 13:00:00 33.6 18 Sudoeste 28 Oeste 0 -- -- 22
2017-07-30 12:00:00 31.2 8 Sudoeste 15 Sur 0 -- -- 31
2017-07-30 11:00:00 28.7 7 Nordeste 14 Norte 0 -- -- 33
2017-07-30 10:00:00 25.3 5 Sudoeste 10 Sudoeste 0 -- -- 44
2017-07-30 09:00:00 22.2 5 Sur 12 Nordeste 0 -- -- 53
2017-07-30 08:00:00 20.6 2 Sur 12 Noroeste 0 -- -- 55
2017-07-30 07:00:00 21.8 6 Este 17 Oeste 0 -- -- 50
2017-07-30 06:00:00 21.4 3 Este 13 Sudeste 0 -- -- 50
2017-07-30 05:00:00 21.9 5 Sudoeste 9 Sudoeste 0 -- -- 55
2017-07-30 04:00:00 23.1 4 Sudeste 6 Sudoeste 0 -- -- 50
2017-07-30 03:00:00 24.4 2 Sur 16 Sudoeste 0 -- -- 46
2017-07-30 02:00:00 26.1 14 Sudoeste 23 Sudoeste 0 -- -- 40
2017-07-30 01:00:00 28.3 3 Sudoeste 34 Noroeste 0 -- -- 36
2017-07-30 00:00:00 30.2 27 Noroeste 45 Noroeste 0 -- -- 31
2017-07-29 23:00:00 32.3 19 Noroeste 31 Noroeste 0 -- -- 28
2017-07-29 22:00:00 33.4 18 Noroeste 27 Noroeste 0 -- -- 22
2017-07-29 21:00:00 35.8 13 Oeste 30 Oeste 0 -- -- 23
2017-07-29 20:00:00 37.2 15 Oeste 30 Oeste 0 -- -- 19
2017-07-29 19:00:00 37.4 21 Oeste 35 Oeste 0 -- -- 18
2017-07-29 18:00:00 37.6 17 Oeste 33 Oeste 0 -- -- 18
2017-07-29 17:00:00 37.5 18 Oeste 34 Oeste 0 -- -- 22
2017-07-29 16:00:00 36.7 21 Oeste 37 Oeste 0 -- -- 24
2017-07-29 15:00:00 35.5 21 Oeste 35 Oeste 0 -- -- 26
2017-07-29 14:00:00 34.4 18 Oeste 29 Oeste 0 -- -- 29
2017-07-29 13:00:00 32.3 9 Noroeste 22 Noroeste 0 -- -- 32
2017-07-29 12:00:00 30.7 13 Noroeste 23 Noroeste 0 -- -- 34
2017-07-29 11:00:00 29.8 6 Nordeste 14 Norte 0 -- -- 37
2017-07-29 10:00:00 27.5 6 Sudeste 13 Norte 0 -- -- 43
2017-07-29 09:00:00 22.9 2 Oeste 6 Sur 0 -- -- 53
2017-07-29 08:00:00 -- -- -- -- -- -- -- -- --
2017-07-29 07:00:00 -- -- -- -- -- -- -- -- --
2017-07-29 06:00:00 -- -- -- -- -- -- -- -- --
2017-07-29 05:00:00 -- -- -- -- -- -- -- -- --
2017-07-29 04:00:00 -- -- -- -- -- -- -- -- --
2017-07-29 03:00:00 -- -- -- -- -- -- -- -- --
2017-07-29 02:00:00 27 11 Oeste 30 Noroeste 0 -- -- 31
2017-07-29 01:00:00 27.8 18 Noroeste 26 Noroeste 0 -- -- 29
2017-07-29 00:00:00 29.3 21 Noroeste 34 Noroeste 0 -- -- 28
2017-07-28 23:00:00 31.5 20 Noroeste 36 Oeste 0 -- -- 26
2017-07-28 22:00:00 33.1 23 Oeste 36 Oeste 0 -- -- 24
2017-07-28 21:00:00 36.2 17 Oeste 26 Oeste 0 -- -- 20
2017-07-28 20:00:00 37.3 19 Oeste 34 Oeste 0 -- -- 19
2017-07-28 19:00:00 37.9 21 Oeste 34 Oeste 0 -- -- 14
2017-07-28 18:00:00 37.9 22 Oeste 33 Noroeste 0 -- -- 13
2017-07-28 17:00:00 38.1 18 Oeste 39 Oeste 0 -- -- 16
2017-07-28 16:00:00 37.8 17 Oeste 32 Sudoeste 0 -- -- 16
2017-07-28 15:00:00 36.5 16 Oeste 30 Oeste 0 -- -- 19
2017-07-28 14:00:00 35.3 21 Oeste 31 Oeste 0 -- -- 22
2017-07-28 13:00:00 33.5 10 Norte 26 Norte 0 -- -- 24
2017-07-28 12:00:00 32 16 Norte 32 Norte 0 -- -- 28
2017-07-28 11:00:00 30 25 Norte 37 Norte 0 -- -- 27
2017-07-28 10:00:00 27.7 25 Norte 45 Norte 0 -- -- 33
2017-07-28 09:00:00 25.6 28 Norte 43 Norte 0 -- -- 42
2017-07-28 08:00:00 -- -- -- -- -- -- -- -- --
2017-07-28 07:00:00 -- -- -- -- -- -- -- -- --
2017-07-28 06:00:00 -- -- -- -- -- -- -- -- --
2017-07-28 05:00:00 -- -- -- -- -- -- -- -- --
2017-07-28 04:00:00 -- -- -- -- -- -- -- -- --
2017-07-28 03:00:00 -- -- -- -- -- -- -- -- --
2017-07-28 02:00:00 -- -- -- -- -- -- -- -- --
2017-07-28 01:00:00 -- -- -- -- -- -- -- -- --
2017-07-28 00:00:00 -- -- -- -- -- -- -- -- --
2017-07-27 23:00:00 31.7 19 Noroeste 31 Oeste 0 -- -- 25
2017-07-27 22:00:00 33.6 22 Oeste 32 Oeste 0 -- -- 22
2017-07-27 21:00:00 36.1 14 Oeste 24 Oeste 0 -- -- 15
2017-07-27 20:00:00 37.7 15 Oeste 28 Oeste 0 -- -- 16
2017-07-27 19:00:00 38.1 16 Oeste 29 Oeste 0 -- -- 16
2017-07-27 18:00:00 38.4 15 Oeste 31 Sudoeste 0 -- -- 16
2017-07-27 17:00:00 38.7 19 Sudoeste 30 Oeste 0 -- -- 17
2017-07-27 16:00:00 38 12 Sudoeste 27 Sudoeste 0 -- -- 19
2017-07-27 15:00:00 37.1 15 Sudoeste 33 Oeste 0 -- -- 19
2017-07-27 14:00:00 36.5 15 Oeste 24 Oeste 0 -- -- 21
2017-07-27 13:00:00 35.3 9 Sudoeste 21 Sudoeste 0 -- -- 23
2017-07-27 12:00:00 33.8 10 Oeste 17 Sudoeste 0 -- -- 25
2017-07-27 11:00:00 32.1 6 Sudoeste 15 Norte 0 -- -- 27
2017-07-27 10:00:00 30.3 10 Norte 18 Norte 0 -- -- 28
2017-07-27 09:00:00 28.6 12 Norte 23 Norte 0 -- -- 29
2017-07-27 08:00:00 26.5 17 Norte 28 Norte 0 -- -- 32
2017-07-27 07:00:00 26.3 17 Norte 33 Norte 0 -- -- 32
2017-07-27 06:00:00 27.1 25 Norte 41 Norte 0 -- -- 31
2017-07-27 05:00:00 27.6 28 Norte 42 Norte 0 -- -- 31
2017-07-27 04:00:00 28.1 26 Norte 42 Norte 0 -- -- 31
2017-07-27 03:00:00 28.6 23 Norte 32 Norte 0 -- -- 31
2017-07-27 02:00:00 29.1 25 Norte 37 Norte 0 -- -- 30
2017-07-27 01:00:00 30 27 Norte 37 Norte 0 -- -- 26
2017-07-27 00:00:00 30.7 17 Norte 21 Norte 0 -- -- 25
2017-07-26 23:00:00 30.5 13 Norte 15 Norte 0 -- -- 27
2017-07-26 22:00:00 31 11 Norte 14 Norte 0 -- -- 26
2017-07-26 21:00:00 35.6 7 Norte 20 Norte 0 -- -- 22
2017-07-26 20:00:00 36.5 7 Noroeste 22 Noroeste 0 -- -- 21
2017-07-26 19:00:00 36.4 9 Noroeste 26 Norte 0 -- -- 21
2017-07-26 18:00:00 35.9 10 Nordeste 26 Este 0 -- -- 20
2017-07-26 17:00:00 35.6 12 Norte 31 Noroeste 0 -- -- 21
2017-07-26 16:00:00 35.1 11 Norte 37 Noroeste 0 -- -- 21
2017-07-26 15:00:00 34.7 8 Norte 24 Noroeste 0 -- -- 22
2017-07-26 14:00:00 33.9 11 Nordeste 25 Nordeste 0 -- -- 23
2017-07-26 13:00:00 33.2 9 Este 22 Este 0 -- -- 23
2017-07-26 12:00:00 -- -- -- -- -- -- -- -- --
2017-07-26 11:00:00 -- -- -- -- -- -- -- -- --
2017-07-26 10:00:00 -- -- -- -- -- -- -- -- --
2017-07-26 09:00:00 -- -- -- -- -- -- -- -- --
2017-07-26 08:00:00 -- -- -- -- -- -- -- -- --
2017-07-26 07:00:00 24.5 16 Nordeste 28 Nordeste 0 -- -- 31
2017-07-26 06:00:00 24.9 16 Nordeste 25 Nordeste 0 -- -- 30
2017-07-26 05:00:00 25.9 18 Nordeste 26 Norte 0 -- -- 28
2017-07-26 04:00:00 25.9 18 Norte 25 Norte 0 -- -- 29
2017-07-26 03:00:00 26.7 17 Norte 26 Norte 0 -- -- 27
2017-07-26 02:00:00 26.1 20 Norte 38 Norte 0 -- -- 28
2017-07-26 01:00:00 26.5 21 Norte 31 Norte 0 -- -- 29
2017-07-26 00:00:00 27.1 15 Norte 25 Norte 0 -- -- 28
2017-07-25 23:00:00 27.7 11 Norte 25 Norte 0 -- -- 26
2017-07-25 22:00:00 29.4 9 Norte 30 Norte 0 -- -- 24
2017-07-25 21:00:00 32.3 19 Norte 28 Norte 0 -- -- 21
2017-07-25 20:00:00 33.9 16 Norte 30 Nordeste 0 -- -- 20
2017-07-25 19:00:00 34.8 16 Norte 29 Norte 0 -- -- 21
2017-07-25 18:00:00 34.6 10 Norte 33 Norte 0 -- -- 21
2017-07-25 17:00:00 34.2 12 Norte 33 Norte 0 -- -- 20
2017-07-25 16:00:00 33.4 15 Norte 32 Norte 0 -- -- 19
2017-07-25 15:00:00 32.8 15 Norte 30 Norte 0 -- -- 16
2017-07-25 14:00:00 31.1 18 Norte 30 Norte 0 -- -- 22
2017-07-25 13:00:00 30.2 15 Norte 27 Norte 0 -- -- 32
2017-07-25 12:00:00 29 14 Nordeste 24 Nordeste 0 -- -- 32
2017-07-25 11:00:00 27.8 15 Nordeste 27 Nordeste 0 -- -- 35
2017-07-25 10:00:00 26 20 Nordeste 32 Nordeste 0 -- -- 38
2017-07-25 09:00:00 24.5 23 Nordeste 34 Nordeste 0 -- -- 41
2017-07-25 08:00:00 23 17 Nordeste 34 Norte 0 -- -- 43
2017-07-25 07:00:00 22.6 19 Norte 32 Norte 0 -- -- 40
2017-07-25 06:00:00 23.8 21 Norte 41 Nordeste 0 -- -- 37
2017-07-25 05:00:00 24.3 25 Norte 45 Norte 0 -- -- 35
2017-07-25 04:00:00 25.2 28 Norte 46 Norte 0 -- -- 34
2017-07-25 03:00:00 26 32 Norte 49 Norte 0 -- -- 33
2017-07-25 02:00:00 26.2 31 Norte 45 Norte 0 -- -- 33
2017-07-25 01:00:00 26.8 33 Norte 40 Noroeste 0 -- -- 31
2017-07-25 00:00:00 27.9 31 Norte 41 Noroeste 0 -- -- 26
2017-07-24 23:00:00 28.9 24 Noroeste 36 Noroeste 0 -- -- 23
2017-07-24 22:00:00 30.2 15 Noroeste 31 Noroeste 0 -- -- 22
2017-07-24 21:00:00 32.4 19 Noroeste 41 Noroeste 0 -- -- 23
2017-07-24 20:00:00 33.9 19 Noroeste 41 Noroeste 0 -- -- 22
2017-07-24 19:00:00 34.7 15 Norte 35 Noroeste 0 -- -- 23
2017-07-24 18:00:00 34.9 15 Noroeste 35 Noroeste 0 -- -- 23
2017-07-24 17:00:00 34 14 Norte 35 Nordeste 0 -- -- 25
2017-07-24 16:00:00 33.3 19 Norte 34 Norte 0 -- -- 28
2017-07-24 15:00:00 32.6 18 Norte 38 Norte 0 -- -- 30
2017-07-24 14:00:00 31.5 24 Norte 50 Norte 0 -- -- 30
2017-07-24 13:00:00 30 29 Norte 56 Norte 0 -- -- 35
2017-07-24 12:00:00 27.7 36 Norte 52 Norte 0 -- -- 40
2017-07-24 11:00:00 26.2 33 Norte 48 Norte 0 -- -- 44
2017-07-24 10:00:00 24.3 17 Norte 36 Norte 0 -- -- 49
2017-07-24 09:00:00 22.6 15 Noroeste 28 Noroeste 0 -- -- 54
2017-07-24 08:00:00 21.4 12 Noroeste 32 Norte 0 -- -- 57
2017-07-24 07:00:00 20.9 13 Norte 29 Noroeste 0 -- -- 59
2017-07-24 06:00:00 22.1 26 Norte 48 Norte 0 -- -- 55
2017-07-24 05:00:00 22.9 37 Norte 55 Norte 0 -- -- 52
2017-07-24 04:00:00 23.9 34 Norte 46 Norte 0 -- -- 48
2017-07-24 03:00:00 25.3 33 Norte 46 Norte 0 -- -- 44
2017-07-24 02:00:00 25.9 32 Norte 45 Norte 0 -- -- 42
2017-07-24 01:00:00 26.8 33 Norte 47 Norte 0 -- -- 41
2017-07-24 00:00:00 27.8 29 Norte 46 Norte 0 -- -- 38
2017-07-23 23:00:00 28.9 23 Noroeste 42 Noroeste 0 -- -- 34
2017-07-23 22:00:00 30.7 11 Noroeste 23 Norte 0 -- -- 24
2017-07-23 21:00:00 32.9 15 Noroeste 32 Noroeste 0 -- -- 20
2017-07-23 20:00:00 34.3 19 Noroeste 32 Noroeste 0 -- -- 19
2017-07-23 19:00:00 35 19 Noroeste 36 Noroeste 0 -- -- 19
2017-07-23 18:00:00 35.3 9 Noroeste 36 Sudoeste 0 -- -- 22
2017-07-23 17:00:00 35.4 15 Noroeste 34 Oeste 0 -- -- 20
2017-07-23 16:00:00 34.5 15 Oeste 30 Oeste 0 -- -- 20
2017-07-23 15:00:00 33.7 19 Oeste 33 Oeste 0 -- -- 22
2017-07-23 14:00:00 33 15 Oeste 29 Sudoeste 0 -- -- 22
2017-07-23 13:00:00 31.2 10 Norte 24 Nordeste 0 -- -- 28
2017-07-23 12:00:00 29.5 15 Norte 28 Noroeste 0 -- -- 31
2017-07-23 11:00:00 28.1 8 Nordeste 29 Norte 0 -- -- 33
2017-07-23 10:00:00 25.2 19 Norte 32 Norte 0 -- -- 39
2017-07-23 09:00:00 23.4 13 Norte 27 Norte 0 -- -- 42
2017-07-23 08:00:00 21.5 8 Sudeste 38 Norte 0 -- -- 48
2017-07-23 07:00:00 21.9 27 Norte 46 Norte 0 -- -- 47
2017-07-23 06:00:00 22.2 35 Norte 47 Norte 0 -- -- 46
2017-07-23 05:00:00 22.8 34 Norte 46 Norte 0 -- -- 45
2017-07-23 04:00:00 23.3 30 Norte 46 Norte 0 -- -- 46
2017-07-23 03:00:00 24 31 Norte 42 Norte 0 -- -- 44
2017-07-23 02:00:00 24.7 28 Norte 39 Norte 0 -- -- 43
2017-07-23 01:00:00 25 27 Norte 35 Noroeste 0 -- -- 43
2017-07-23 00:00:00 26 24 Norte 31 Norte 0 -- -- 39